createdAt,value
2022-09-13T00:01:10.117Z,100329.20
2022-09-13T00:03:37.663Z,100331.40
2022-09-13T00:06:23.432Z,100320.60
2022-09-13T00:08:50.819Z,100319.60
2022-09-13T00:11:23.100Z,100313.80
2022-09-13T00:13:50.600Z,100312.60
2022-09-13T00:16:20.943Z,100303.40
2022-09-13T00:18:48.367Z,100294.00
2022-09-13T00:21:19.709Z,100292.80
2022-09-13T00:23:50.723Z,100298.40
2022-09-13T00:26:23.150Z,100296.80
2022-09-13T00:28:57.293Z,100293.00
2022-09-13T00:31:27.670Z,100285.00
2022-09-13T00:33:55.496Z,100283.20
2022-09-13T00:36:22.830Z,100279.60
2022-09-13T00:38:49.869Z,100277.40
2022-09-13T00:41:20.256Z,100275.40
2022-09-13T00:43:51.936Z,100276.60
2022-09-13T00:46:40.377Z,100275.20
2022-09-13T00:49:34.178Z,100279.60
2022-09-13T00:52:08.509Z,100273.60
2022-09-13T00:54:48.254Z,100270.40
2022-09-13T00:57:19.672Z,100265.60
2022-09-13T01:00:01.500Z,100267.00
2022-09-13T01:02:29.471Z,100269.40
2022-09-13T01:04:56.551Z,100270.40
2022-09-13T01:07:23.749Z,100274.00
2022-09-13T01:09:53.273Z,100275.20
2022-09-13T01:12:55.527Z,100272.80
2022-09-13T01:15:23.180Z,100270.60
2022-09-13T01:17:53.111Z,100266.00
2022-09-13T01:20:25.705Z,100259.00
2022-09-13T01:23:30.119Z,100256.20
2022-09-13T01:26:11.729Z,100255.20
2022-09-13T01:29:18.394Z,100254.20
2022-09-13T01:32:03.694Z,100252.60
2022-09-13T01:34:51.366Z,100248.60
2022-09-13T01:37:38.097Z,100250.20
2022-09-13T01:40:28.599Z,100246.20
2022-09-13T01:43:27.683Z,100245.60
2022-09-13T01:46:33.602Z,100241.60
2022-09-13T01:49:17.184Z,100242.80
2022-09-13T01:52:02.785Z,100244.40
2022-09-13T01:54:43.089Z,100246.40
2022-09-13T01:57:20.161Z,100247.40
2022-09-13T01:59:57.253Z,100243.80
2022-09-13T02:02:23.855Z,100241.00
2022-09-13T02:04:56.137Z,100237.80
2022-09-13T02:07:36.760Z,100240.60
2022-09-13T02:10:25.568Z,100235.40
2022-09-13T02:12:57.007Z,100238.40
2022-09-13T02:15:38.062Z,100245.40
2022-09-13T02:18:24.181Z,100247.00
2022-09-13T02:21:16.064Z,100249.80
2022-09-13T02:24:33.302Z,100251.40
2022-09-13T02:27:15.563Z,100256.80
2022-09-13T02:30:04.084Z,100249.40
2022-09-13T02:32:40.457Z,100247.40
2022-09-13T02:35:25.852Z,100252.80
2022-09-13T02:38:03.047Z,100248.80
2022-09-13T02:40:42.342Z,100245.40
2022-09-13T02:43:21.088Z,100242.20
2022-09-13T02:46:35.508Z,100235.00
2022-09-13T02:49:51.724Z,100233.00
2022-09-13T02:52:48.661Z,100231.00
2022-09-13T02:55:21.499Z,100227.80
2022-09-13T02:57:59.841Z,100228.20
2022-09-13T03:00:29.156Z,100230.60
2022-09-13T03:03:00.311Z,100229.20
2022-09-13T03:05:27.022Z,100232.80
2022-09-13T03:07:57.131Z,100230.20
2022-09-13T03:10:33.817Z,100234.60
2022-09-13T03:13:36.821Z,100238.20
2022-09-13T03:16:19.055Z,100238.80
2022-09-13T03:18:57.971Z,100235.80
2022-09-13T03:21:59.396Z,100241.20
2022-09-13T03:24:57.138Z,100236.20
2022-09-13T03:27:49.786Z,100239.20
2022-09-13T03:30:18.878Z,100249.80
2022-09-13T03:33:21.149Z,100249.40
2022-09-13T03:36:16.564Z,100252.00
2022-09-13T03:38:57.138Z,100255.80
2022-09-13T03:41:33.498Z,100252.60
2022-09-13T03:44:06.041Z,100255.40
2022-09-13T03:46:49.093Z,100250.60
2022-09-13T03:49:18.550Z,100241.60
2022-09-13T03:51:49.977Z,100238.60
2022-09-13T03:54:32.591Z,100237.60
2022-09-13T03:57:21.261Z,100238.20
2022-09-13T03:59:55.032Z,100243.00
2022-09-13T04:02:25.836Z,100241.40
2022-09-13T04:04:52.817Z,100236.60
2022-09-13T04:07:23.470Z,100230.40
2022-09-13T04:09:50.982Z,100233.00
2022-09-13T04:12:19.142Z,100229.40
2022-09-13T04:14:46.147Z,100223.60
2022-09-13T04:17:14.191Z,100213.00
2022-09-13T04:19:42.208Z,100211.60
2022-09-13T04:22:08.996Z,100209.20
2022-09-13T04:24:36.547Z,100214.20
2022-09-13T04:27:04.870Z,100219.00
2022-09-13T04:29:33.230Z,100213.60
2022-09-13T04:32:00.844Z,100218.00
2022-09-13T04:34:28.241Z,100223.00
2022-09-13T04:36:55.433Z,100223.20
2022-09-13T04:39:23.849Z,100214.60
2022-09-13T04:41:54.541Z,100219.20
2022-09-13T04:44:24.495Z,100222.60
2022-09-13T04:46:52.235Z,100223.20
2022-09-13T04:49:20.329Z,100228.60
2022-09-13T04:51:47.529Z,100228.40
2022-09-13T04:54:16.251Z,100235.80
2022-09-13T04:56:47.224Z,100240.40
2022-09-13T04:59:14.200Z,100242.40
2022-09-13T05:01:41.819Z,100235.00
2022-09-13T05:04:10.600Z,100230.00
2022-09-13T05:06:38.233Z,100231.80
2022-09-13T05:09:05.610Z,100233.20
2022-09-13T05:11:32.748Z,100235.40
2022-09-13T05:14:01.209Z,100235.20
2022-09-13T05:16:32.901Z,100236.40
2022-09-13T05:19:01.748Z,100229.40
2022-09-13T05:21:31.087Z,100230.60
2022-09-13T05:23:58.834Z,100228.00
2022-09-13T05:26:31.023Z,100226.60
2022-09-13T05:29:00.950Z,100228.20
2022-09-13T05:31:35.658Z,100226.80
2022-09-13T05:34:07.474Z,100229.40
2022-09-13T05:36:34.480Z,100235.40
2022-09-13T05:39:28.454Z,100235.40
2022-09-13T05:41:48.968Z,100237.00
2022-09-13T05:44:15.804Z,100240.40
2022-09-13T05:46:43.420Z,100245.40
2022-09-13T05:49:13.865Z,100246.80
2022-09-13T05:51:40.763Z,100244.60
2022-09-13T05:54:07.401Z,100247.60
2022-09-13T05:56:34.153Z,100248.40
2022-09-13T05:59:00.908Z,100253.20
2022-09-13T06:01:29.386Z,100249.80
2022-09-13T06:03:59.579Z,100252.20
2022-09-13T06:06:27.337Z,100254.40
2022-09-13T06:08:58.231Z,100253.80
2022-09-13T06:11:26.823Z,100250.80
2022-09-13T06:13:53.979Z,100253.20
2022-09-13T06:16:22.080Z,100250.00
2022-09-13T06:18:50.356Z,100247.40
2022-09-13T06:21:23.754Z,100250.80
2022-09-13T06:23:54.854Z,100251.40
2022-09-13T06:26:25.587Z,100249.80
2022-09-13T06:28:55.710Z,100252.60
2022-09-13T06:31:26.495Z,100259.00
2022-09-13T06:34:04.724Z,100257.80
2022-09-13T06:36:31.478Z,100262.80
2022-09-13T06:39:00.801Z,100259.80
2022-09-13T06:41:29.241Z,100262.00
2022-09-13T06:43:59.371Z,100258.20
2022-09-13T06:46:29.443Z,100258.60
2022-09-13T06:49:01.537Z,100263.00
2022-09-13T06:51:30.701Z,100263.00
2022-09-13T06:53:57.618Z,100266.20
2022-09-13T06:56:32.722Z,100268.00
2022-09-13T06:59:05.836Z,100266.40
2022-09-13T07:01:39.594Z,100269.20
2022-09-13T07:04:22.443Z,100268.60
2022-09-13T07:06:50.064Z,100271.00
2022-09-13T07:09:21.663Z,100268.20
2022-09-13T07:11:51.905Z,100272.20
2022-09-13T07:14:23.768Z,100271.20
2022-09-13T07:16:51.845Z,100260.00
2022-09-13T07:19:29.416Z,100259.40
2022-09-13T07:21:58.359Z,100263.80
2022-09-13T07:24:25.759Z,100261.80
2022-09-13T07:26:52.476Z,100263.00
2022-09-13T07:29:23.929Z,100265.20
2022-09-13T07:31:54.627Z,100270.40
2022-09-13T07:34:26.333Z,100273.00
2022-09-13T07:36:54.332Z,100269.60
2022-09-13T07:39:23.026Z,100274.00
2022-09-13T07:41:51.646Z,100272.20
2022-09-13T07:44:18.730Z,100276.20
2022-09-13T07:46:46.200Z,100273.80
2022-09-13T07:49:18.753Z,100271.40
2022-09-13T07:51:45.994Z,100274.80
2022-09-13T07:54:18.045Z,100279.00
2022-09-13T07:56:45.847Z,100278.60
2022-09-13T07:59:17.961Z,100278.40
2022-09-13T08:01:48.181Z,100286.80
2022-09-13T08:04:25.896Z,100287.80
2022-09-13T08:06:53.434Z,100287.20
2022-09-13T08:09:20.139Z,100286.40
2022-09-13T08:11:53.151Z,100289.60
2022-09-13T08:14:23.388Z,100286.20
2022-09-13T08:16:50.450Z,100288.20
2022-09-13T08:19:19.285Z,100287.80
2022-09-13T08:21:47.192Z,100286.00
2022-09-13T08:24:18.873Z,100286.80
2022-09-13T08:26:48.102Z,100292.80
2022-09-13T08:29:16.682Z,100297.00
2022-09-13T08:31:44.271Z,100292.60
2022-09-13T08:34:14.658Z,100290.80
2022-09-13T08:36:42.817Z,100298.60
2022-09-13T08:39:13.547Z,100298.60
2022-09-13T08:41:40.372Z,100297.00
2022-09-13T08:44:26.807Z,100290.20
2022-09-13T08:47:08.215Z,100290.60
2022-09-13T08:49:45.073Z,100290.60
2022-09-13T08:52:33.300Z,100288.80
2022-09-13T08:55:20.129Z,100289.60
2022-09-13T08:58:30.640Z,100288.80
2022-09-13T09:01:26.188Z,100288.80
2022-09-13T09:04:29.097Z,100284.40
2022-09-13T09:07:09.506Z,100284.00
2022-09-13T09:09:46.059Z,100288.20
2022-09-13T09:12:27.064Z,100283.00
2022-09-13T09:15:20.236Z,100280.20
2022-09-13T09:18:03.376Z,100281.40
2022-09-13T09:20:47.920Z,100284.40
2022-09-13T09:23:21.601Z,100285.00
2022-09-13T09:25:57.960Z,100284.40
2022-09-13T09:28:26.490Z,100289.60
2022-09-13T09:31:21.065Z,100286.40
2022-09-13T09:34:19.125Z,100285.00
2022-09-13T09:36:56.933Z,100285.00
2022-09-13T09:39:29.873Z,100281.80
2022-09-13T09:41:57.823Z,100284.80
2022-09-13T09:44:33.872Z,100282.00
2022-09-13T09:47:10.942Z,100277.80
2022-09-13T09:50:09.375Z,100275.40
2022-09-13T09:52:57.019Z,100277.40
2022-09-13T09:55:48.683Z,100277.60
2022-09-13T09:58:19.221Z,100280.40
2022-09-13T10:00:56.466Z,100282.00
2022-09-13T10:03:31.873Z,100282.00
2022-09-13T10:06:21.065Z,100283.60
2022-09-13T10:09:22.339Z,100285.40
2022-09-13T10:11:59.527Z,100283.60
2022-09-13T10:14:42.623Z,100280.40
2022-09-13T10:17:25.198Z,100283.40
2022-09-13T10:19:57.781Z,100278.20
2022-09-13T10:22:26.285Z,100278.00
2022-09-13T10:24:54.121Z,100278.00
2022-09-13T10:27:39.610Z,100288.40
2022-09-13T10:30:35.305Z,100287.60
2022-09-13T10:33:03.994Z,100287.00
2022-09-13T10:35:32.296Z,100286.40
2022-09-13T10:37:59.220Z,100282.20
2022-09-13T10:40:34.143Z,100277.60
2022-09-13T10:43:08.038Z,100278.80
2022-09-13T10:45:34.787Z,100276.60
2022-09-13T10:48:20.112Z,100280.00
2022-09-13T10:51:21.642Z,100272.40
2022-09-13T10:53:48.642Z,100266.00
2022-09-13T10:56:26.222Z,100270.00
2022-09-13T10:59:30.222Z,100266.20
2022-09-13T11:02:22.810Z,100263.20
2022-09-13T11:05:33.058Z,100260.80
2022-09-13T11:09:03.441Z,100259.00
2022-09-13T11:11:36.099Z,100258.80
2022-09-13T11:14:14.915Z,100254.80
2022-09-13T11:17:37.254Z,100262.00
2022-09-13T11:20:25.045Z,100261.80
2022-09-13T11:23:03.669Z,100259.20
2022-09-13T11:26:17.516Z,100255.20
2022-09-13T11:29:09.277Z,100246.60
2022-09-13T11:31:43.861Z,100246.40
2022-09-13T11:34:25.178Z,100246.20
2022-09-13T11:37:14.821Z,100247.60
2022-09-13T11:39:55.525Z,100246.00
2022-09-13T11:42:53.288Z,100243.20
2022-09-13T11:45:34.248Z,100242.80
2022-09-13T11:48:36.780Z,100242.60
2022-09-13T11:51:31.282Z,100247.00
2022-09-13T11:54:35.251Z,100240.60
2022-09-13T11:57:15.191Z,100238.80
2022-09-13T12:00:02.523Z,100238.80
2022-09-13T12:02:40.094Z,100233.00
2022-09-13T12:05:24.518Z,100225.60
2022-09-13T12:08:10.111Z,100220.20
2022-09-13T12:10:58.208Z,100213.00
2022-09-13T12:13:41.610Z,100216.80
2022-09-13T12:16:16.378Z,100217.40
2022-09-13T12:18:51.755Z,100224.40
2022-09-13T12:21:29.214Z,100216.80
2022-09-13T12:24:07.921Z,100215.00
2022-09-13T12:27:04.645Z,100218.00
2022-09-13T12:29:49.542Z,100210.60
2022-09-13T12:32:18.802Z,100216.60
2022-09-13T12:35:20.132Z,100214.40
2022-09-13T12:38:11.624Z,100216.00
2022-09-13T12:41:05.971Z,100216.80
2022-09-13T12:44:09.291Z,100210.60
2022-09-13T12:46:55.030Z,100213.20
2022-09-13T12:50:21.632Z,100215.60
2022-09-13T12:53:02.131Z,100211.60
2022-09-13T12:56:31.332Z,100207.20
2022-09-13T12:59:18.492Z,100203.20
2022-09-13T13:01:49.730Z,100202.20
2022-09-13T13:04:26.663Z,100195.40
2022-09-13T13:07:06.474Z,100195.00
2022-09-13T13:09:50.988Z,100194.20
2022-09-13T13:12:40.371Z,100192.60
2022-09-13T13:15:27.397Z,100190.20
2022-09-13T13:17:55.867Z,100191.00
2022-09-13T13:20:47.481Z,100201.60
2022-09-13T13:23:27.838Z,100207.60
2022-09-13T13:26:01.218Z,100201.20
2022-09-13T13:28:44.450Z,100198.60
2022-09-13T13:31:32.672Z,100204.20
2022-09-13T13:34:13.752Z,100207.00
2022-09-13T13:36:40.354Z,100204.60
2022-09-13T13:39:25.251Z,100200.60
2022-09-13T13:42:12.826Z,100200.00
2022-09-13T13:44:42.573Z,100198.00
2022-09-13T13:47:09.197Z,100194.60
2022-09-13T13:49:39.655Z,100195.20
2022-09-13T13:52:06.294Z,100193.80
2022-09-13T13:54:42.160Z,100190.40
2022-09-13T13:57:40.385Z,100185.40
2022-09-13T14:00:29.067Z,100184.40
2022-09-13T14:03:01.862Z,100179.60
2022-09-13T14:05:50.430Z,100183.40
2022-09-13T14:08:48.128Z,100179.20
2022-09-13T14:11:28.712Z,100175.80
2022-09-13T14:14:27.932Z,100178.80
2022-09-13T14:17:32.227Z,100171.20
2022-09-13T14:20:08.312Z,100174.40
2022-09-13T14:22:35.226Z,100171.40
2022-09-13T14:25:20.267Z,100171.40
2022-09-13T14:27:49.515Z,100177.60
2022-09-13T14:30:48.326Z,100175.80
2022-09-13T14:33:36.243Z,100172.00
2022-09-13T14:36:19.964Z,100170.00
2022-09-13T14:38:56.931Z,100180.00
2022-09-13T14:41:34.182Z,100172.00
2022-09-13T14:44:28.147Z,100157.80
2022-09-13T14:47:15.274Z,100171.80
2022-09-13T14:49:49.866Z,100171.00
2022-09-13T14:52:48.949Z,100163.00
2022-09-13T14:55:31.391Z,100178.20
2022-09-13T14:58:04.606Z,100171.80
2022-09-13T15:01:02.139Z,100174.40
2022-09-13T15:03:29.644Z,100164.60
2022-09-13T15:06:00.419Z,100168.00
2022-09-13T15:08:33.295Z,100176.20
2022-09-13T15:11:03.226Z,100175.80
2022-09-13T15:13:30.684Z,100172.20
2022-09-13T15:15:57.849Z,100169.60
2022-09-13T15:18:36.428Z,100164.40
2022-09-13T15:21:13.834Z,100159.40
2022-09-13T15:23:51.078Z,100164.40
2022-09-13T15:26:26.248Z,100155.20
2022-09-13T15:28:57.298Z,100155.40
2022-09-13T15:31:34.321Z,100143.40
2022-09-13T15:34:22.233Z,100146.80
2022-09-13T15:37:11.247Z,100143.00
2022-09-13T15:39:52.282Z,100152.80
2022-09-13T15:42:18.997Z,100159.40
2022-09-13T15:44:45.813Z,100162.80
2022-09-13T15:47:18.835Z,100161.00
2022-09-13T15:49:52.566Z,100154.20
2022-09-13T15:52:21.037Z,100154.60
2022-09-13T15:54:51.107Z,100160.40
2022-09-13T15:57:27.931Z,100158.60
2022-09-13T15:59:56.826Z,100163.00
2022-09-13T16:02:32.106Z,100161.80
2022-09-13T16:04:59.368Z,100161.60
2022-09-13T16:07:27.303Z,100160.40
2022-09-13T16:09:54.461Z,100163.60
2022-09-13T16:12:27.086Z,100168.20
2022-09-13T16:14:54.712Z,100161.40
2022-09-13T16:17:25.417Z,100157.00
2022-09-13T16:19:53.852Z,100159.00
2022-09-13T16:22:21.588Z,100159.00
2022-09-13T16:24:48.590Z,100160.60
2022-09-13T16:27:18.937Z,100162.00
2022-09-13T16:29:46.503Z,100158.80
2022-09-13T16:32:13.683Z,100161.80
2022-09-13T16:34:40.413Z,100161.40
2022-09-13T16:37:07.439Z,100164.40
2022-09-13T16:39:34.403Z,100164.40
2022-09-13T16:42:01.153Z,100162.80
2022-09-13T16:44:27.867Z,100164.60
2022-09-13T16:46:54.646Z,100163.20
2022-09-13T16:49:21.466Z,100160.00
2022-09-13T16:51:48.745Z,100160.80
2022-09-13T16:54:15.718Z,100164.60
2022-09-13T16:56:42.527Z,100167.60
2022-09-13T16:59:09.414Z,100170.40
2022-09-13T17:01:36.413Z,100168.00
2022-09-13T17:04:03.851Z,100171.80
2022-09-13T17:06:30.537Z,100175.40
2022-09-13T17:09:01.835Z,100174.80
2022-09-13T17:11:32.816Z,100177.60
2022-09-13T17:14:02.249Z,100176.00
2022-09-13T17:16:40.236Z,100172.60
2022-09-13T17:19:13.671Z,100171.00
2022-09-13T17:21:40.871Z,100172.00
2022-09-13T17:24:13.226Z,100169.40
2022-09-13T17:26:42.084Z,100171.60
2022-09-13T17:29:11.496Z,100175.20
2022-09-13T17:31:38.461Z,100176.40
2022-09-13T17:34:05.452Z,100179.40
2022-09-13T17:36:32.298Z,100175.40
2022-09-13T17:38:59.062Z,100173.20
2022-09-13T17:41:27.014Z,100176.20
2022-09-13T17:43:54.952Z,100172.40
2022-09-13T17:46:25.959Z,100175.60
2022-09-13T17:48:55.204Z,100171.40
2022-09-13T17:51:40.241Z,100167.40
2022-09-13T17:54:10.408Z,100162.40
2022-09-13T17:56:43.952Z,100162.20
2022-09-13T17:59:15.625Z,100163.80
2022-09-13T18:01:52.197Z,100166.20
2022-09-13T18:04:22.889Z,100167.60
2022-09-13T18:06:52.900Z,100172.60
2022-09-13T18:09:20.838Z,100177.20
2022-09-13T18:11:47.569Z,100169.20
2022-09-13T18:14:18.648Z,100169.00
2022-09-13T18:16:47.111Z,100164.40
2022-09-13T18:19:14.218Z,100165.80
2022-09-13T18:21:41.118Z,100164.80
2022-09-13T18:24:08.849Z,100165.80
2022-09-13T18:26:36.345Z,100169.60
2022-09-13T18:29:09.677Z,100170.60
2022-09-13T18:31:37.414Z,100171.80
2022-09-13T18:34:12.145Z,100164.80
2022-09-13T18:36:40.064Z,100171.60
2022-09-13T18:39:12.815Z,100165.60
2022-09-13T18:41:45.103Z,100163.40
2022-09-13T18:44:13.149Z,100163.00
2022-09-13T18:46:40.995Z,100163.40
2022-09-13T18:49:09.739Z,100163.00
2022-09-13T18:51:39.868Z,100169.60
2022-09-13T18:54:10.625Z,100172.40
2022-09-13T18:56:37.395Z,100172.60
2022-09-13T18:59:06.769Z,100177.40
2022-09-13T19:01:40.815Z,100168.00
2022-09-13T19:04:20.019Z,100173.20
2022-09-13T19:06:53.334Z,100177.20
2022-09-13T19:09:22.894Z,100178.40
2022-09-13T19:11:53.458Z,100179.20
2022-09-13T19:14:28.490Z,100175.00
2022-09-13T19:17:00.435Z,100169.40
2022-09-13T19:19:30.984Z,100169.40
2022-09-13T19:21:58.250Z,100172.60
2022-09-13T19:24:25.654Z,100172.00
2022-09-13T19:26:53.140Z,100170.00
2022-09-13T19:29:23.085Z,100175.60
2022-09-13T19:31:52.699Z,100169.00
2022-09-13T19:34:22.208Z,100159.40
2022-09-13T19:36:53.586Z,100164.80
2022-09-13T19:39:20.218Z,100165.00
2022-09-13T19:41:47.110Z,100168.60
2022-09-13T19:44:14.527Z,100169.60
2022-09-13T19:46:43.134Z,100173.60
2022-09-13T19:49:16.697Z,100172.20
2022-09-13T19:51:48.783Z,100171.20
2022-09-13T19:54:18.887Z,100166.80
2022-09-13T19:56:46.278Z,100169.60
2022-09-13T19:59:17.105Z,100175.40
2022-09-13T20:01:46.161Z,100175.40
2022-09-13T20:04:17.873Z,100178.20
2022-09-13T20:06:48.559Z,100174.80
2022-09-13T20:09:18.034Z,100174.00
2022-09-13T20:11:48.528Z,100171.80
2022-09-13T20:14:19.387Z,100171.00
2022-09-13T20:16:46.619Z,100169.60
2022-09-13T20:22:08.996Z,100172.20
2022-09-13T20:24:36.026Z,100170.00
2022-09-13T20:27:03.033Z,100164.20
2022-09-13T20:29:29.719Z,100165.60
2022-09-13T20:31:56.531Z,100164.00
2022-09-13T20:34:23.277Z,100163.20
2022-09-13T20:36:49.974Z,100163.00
2022-09-13T20:39:17.188Z,100157.40
2022-09-13T20:41:45.140Z,100156.80
2022-09-13T20:44:12.424Z,100155.20
2022-09-13T20:46:40.614Z,100154.40
2022-09-13T20:49:09.318Z,100151.00
2022-09-13T20:51:37.369Z,100147.20
2022-09-13T20:54:04.969Z,100143.20
2022-09-13T20:56:34.236Z,100144.00
2022-09-13T20:59:01.708Z,100146.40
2022-09-13T21:01:31.256Z,100151.60
2022-09-13T21:03:59.755Z,100152.20
2022-09-13T21:06:30.939Z,100159.20
2022-09-13T21:08:59.925Z,100160.00
2022-09-13T21:11:33.430Z,100162.60
2022-09-13T21:14:04.565Z,100162.20
2022-09-13T21:16:39.213Z,100159.40
2022-09-13T21:19:08.087Z,100157.80
2022-09-13T21:21:38.790Z,100163.80
2022-09-13T21:24:09.596Z,100167.00
2022-09-13T21:26:42.212Z,100174.60
2022-09-13T21:29:11.324Z,100175.60
2022-09-13T21:31:38.840Z,100173.80
2022-09-13T21:34:18.019Z,100162.00
2022-09-13T21:36:46.730Z,100158.20
2022-09-13T21:39:16.411Z,100156.00
2022-09-13T21:41:43.631Z,100156.40
2022-09-13T21:44:11.024Z,100161.80
2022-09-13T21:46:40.159Z,100160.00
2022-09-13T21:49:11.421Z,100161.40
2022-09-13T21:51:45.170Z,100159.40
2022-09-13T21:54:15.759Z,100161.20
2022-09-13T21:56:49.818Z,100162.20
2022-09-13T21:59:19.339Z,100158.40
2022-09-13T22:01:51.238Z,100167.60
2022-09-13T22:04:25.289Z,100164.20
2022-09-13T22:06:53.862Z,100165.20
2022-09-13T22:09:27.028Z,100166.80
2022-09-13T22:11:56.442Z,100163.40
2022-09-13T22:14:23.791Z,100161.00
2022-09-13T22:16:53.194Z,100163.20
2022-09-13T22:19:26.647Z,100158.40
2022-09-13T22:21:59.015Z,100162.80
2022-09-13T22:24:31.754Z,100160.20
2022-09-13T22:26:59.085Z,100161.60
2022-09-13T22:29:26.457Z,100160.20
2022-09-13T22:31:54.380Z,100163.60
2022-09-13T22:34:24.884Z,100165.00
2022-09-13T22:36:55.306Z,100156.40
2022-09-13T22:39:23.951Z,100152.40
2022-09-13T22:41:50.789Z,100151.60
2022-09-13T22:44:17.656Z,100143.80
2022-09-13T22:46:46.165Z,100147.20
2022-09-13T22:49:16.634Z,100146.00
2022-09-13T22:51:45.338Z,100144.20
2022-09-13T22:54:13.723Z,100148.20
2022-09-13T22:56:41.481Z,100150.60
2022-09-13T22:59:27.780Z,100151.80
2022-09-13T23:01:54.494Z,100151.20
2022-09-13T23:04:21.296Z,100147.80
2022-09-13T23:06:48.017Z,100145.80
2022-09-13T23:09:18.441Z,100144.00
2022-09-13T23:11:45.951Z,100147.00
2022-09-13T23:14:16.260Z,100149.00
2022-09-13T23:16:47.000Z,100142.00
2022-09-13T23:19:15.067Z,100135.20
2022-09-13T23:21:43.745Z,100134.20
2022-09-13T23:24:18.129Z,100129.00
2022-09-13T23:26:45.929Z,100124.60
2022-09-13T23:29:17.304Z,100119.00
2022-09-13T23:31:46.257Z,100114.60
2022-09-13T23:34:14.042Z,100121.00
2022-09-13T23:36:43.920Z,100125.80
2022-09-13T23:39:16.677Z,100123.80
2022-09-13T23:41:45.979Z,100128.20
2022-09-13T23:44:13.292Z,100121.60
2022-09-13T23:46:40.354Z,100121.80
2022-09-13T23:49:07.117Z,100122.20
2022-09-13T23:51:34.141Z,100119.00
2022-09-13T23:54:01.286Z,100116.60
2022-09-13T23:56:31.600Z,100115.60
2022-09-13T23:59:02.301Z,100115.80
